sensor_id;sensor_type;location;lat;lon;timestamp;P1;durP1;ratioP1;P2;durP2;ratioP2
23088;SDS011;11713;48.506;8.966;2022-08-03T00:01:42;6.75;;;4.57;;
23088;SDS011;11713;48.506;8.966;2022-08-03T00:04:08;4.82;;;4.35;;
23088;SDS011;11713;48.506;8.966;2022-08-03T00:06:35;5.78;;;4.40;;
23088;SDS011;11713;48.506;8.966;2022-08-03T00:09:03;4.80;;;4.40;;
23088;SDS011;11713;48.506;8.966;2022-08-03T00:11:29;4.90;;;4.50;;
23088;SDS011;11713;48.506;8.966;2022-08-03T00:13:55;4.72;;;4.35;;
23088;SDS011;11713;48.506;8.966;2022-08-03T00:16:21;4.70;;;4.32;;
23088;SDS011;11713;48.506;8.966;2022-08-03T00:18:49;4.95;;;4.53;;
23088;SDS011;11713;48.506;8.966;2022-08-03T00:21:15;4.60;;;4.20;;
23088;SDS011;11713;48.506;8.966;2022-08-03T00:23:41;4.95;;;4.55;;
23088;SDS011;11713;48.506;8.966;2022-08-03T00:26:07;4.90;;;4.50;;
23088;SDS011;11713;48.506;8.966;2022-08-03T00:28:33;5.28;;;4.78;;
23088;SDS011;11713;48.506;8.966;2022-08-03T00:30:59;5.45;;;4.97;;
23088;SDS011;11713;48.506;8.966;2022-08-03T00:33:25;5.40;;;4.90;;
23088;SDS011;11713;48.506;8.966;2022-08-03T00:35:51;5.65;;;4.65;;
23088;SDS011;11713;48.506;8.966;2022-08-03T00:38:17;5.20;;;4.40;;
23088;SDS011;11713;48.506;8.966;2022-08-03T00:40:44;5.80;;;4.88;;
23088;SDS011;11713;48.506;8.966;2022-08-03T00:43:10;4.75;;;4.10;;
23088;SDS011;11713;48.506;8.966;2022-08-03T00:45:37;5.93;;;4.82;;
23088;SDS011;11713;48.506;8.966;2022-08-03T00:48:06;5.00;;;4.50;;
23088;SDS011;11713;48.506;8.966;2022-08-03T00:50:33;5.10;;;4.68;;
23088;SDS011;11713;48.506;8.966;2022-08-03T00:53:03;5.00;;;4.60;;
23088;SDS011;11713;48.506;8.966;2022-08-03T00:55:31;6.43;;;5.15;;
23088;SDS011;11713;48.506;8.966;2022-08-03T00:57:58;5.00;;;4.60;;
23088;SDS011;11713;48.506;8.966;2022-08-03T01:00:29;4.93;;;4.53;;
23088;SDS011;11713;48.506;8.966;2022-08-03T01:02:55;6.30;;;4.85;;
23088;SDS011;11713;48.506;8.966;2022-08-03T01:05:20;5.68;;;4.68;;
23088;SDS011;11713;48.506;8.966;2022-08-03T01:08:01;5.35;;;4.85;;
23088;SDS011;11713;48.506;8.966;2022-08-03T01:10:45;5.45;;;4.95;;
23088;SDS011;11713;48.506;8.966;2022-08-03T01:16:05;5.15;;;4.70;;
23088;SDS011;11713;48.506;8.966;2022-08-03T01:18:53;5.43;;;5.03;;
23088;SDS011;11713;48.506;8.966;2022-08-03T01:21:39;5.72;;;5.05;;
23088;SDS011;11713;48.506;8.966;2022-08-03T01:24:22;5.88;;;5.38;;
23088;SDS011;11713;48.506;8.966;2022-08-03T01:27:11;4.63;;;4.22;;
23088;SDS011;11713;48.506;8.966;2022-08-03T01:32:49;5.07;;;4.68;;
23088;SDS011;11713;48.506;8.966;2022-08-03T01:38:21;5.57;;;5.07;;
23088;SDS011;11713;48.506;8.966;2022-08-03T01:40:53;8.45;;;5.15;;
23088;SDS011;11713;48.506;8.966;2022-08-03T01:43:24;5.35;;;4.88;;
23088;SDS011;11713;48.506;8.966;2022-08-03T01:45:53;5.22;;;4.72;;
23088;SDS011;11713;48.506;8.966;2022-08-03T01:48:21;4.90;;;4.50;;
23088;SDS011;11713;48.506;8.966;2022-08-03T01:50:47;5.60;;;5.10;;
23088;SDS011;11713;48.506;8.966;2022-08-03T01:53:15;5.35;;;4.93;;
23088;SDS011;11713;48.506;8.966;2022-08-03T01:55:43;5.20;;;4.68;;
23088;SDS011;11713;48.506;8.966;2022-08-03T01:58:12;4.97;;;4.57;;
23088;SDS011;11713;48.506;8.966;2022-08-03T02:00:42;6.13;;;4.88;;
23088;SDS011;11713;48.506;8.966;2022-08-03T02:03:10;4.95;;;4.45;;
23088;SDS011;11713;48.506;8.966;2022-08-03T02:05:38;5.40;;;4.90;;
23088;SDS011;11713;48.506;8.966;2022-08-03T02:08:06;6.07;;;5.53;;
23088;SDS011;11713;48.506;8.966;2022-08-03T02:10:35;5.45;;;4.95;;
23088;SDS011;11713;48.506;8.966;2022-08-03T02:13:05;5.43;;;4.93;;
23088;SDS011;11713;48.506;8.966;2022-08-03T02:15:33;4.88;;;4.47;;
23088;SDS011;11713;48.506;8.966;2022-08-03T02:18:02;5.43;;;4.93;;
23088;SDS011;11713;48.506;8.966;2022-08-03T02:20:32;6.03;;;5.07;;
23088;SDS011;11713;48.506;8.966;2022-08-03T02:23:00;5.38;;;4.88;;
23088;SDS011;11713;48.506;8.966;2022-08-03T02:25:26;6.88;;;5.47;;
23088;SDS011;11713;48.506;8.966;2022-08-03T02:27:55;7.15;;;5.95;;
23088;SDS011;11713;48.506;8.966;2022-08-03T02:30:28;6.30;;;5.70;;
23088;SDS011;11713;48.506;8.966;2022-08-03T02:33:02;5.80;;;5.30;;
23088;SDS011;11713;48.506;8.966;2022-08-03T02:35:32;5.90;;;5.32;;
23088;SDS011;11713;48.506;8.966;2022-08-03T02:38:00;5.45;;;4.75;;
23088;SDS011;11713;48.506;8.966;2022-08-03T02:40:29;6.07;;;5.10;;
23088;SDS011;11713;48.506;8.966;2022-08-03T02:42:58;5.47;;;4.97;;
23088;SDS011;11713;48.506;8.966;2022-08-03T02:45:27;7.40;;;5.73;;
23088;SDS011;11713;48.506;8.966;2022-08-03T02:47:57;7.20;;;5.33;;
23088;SDS011;11713;48.506;8.966;2022-08-03T02:50:27;5.97;;;5.43;;
23088;SDS011;11713;48.506;8.966;2022-08-03T02:52:54;7.03;;;5.90;;
23088;SDS011;11713;48.506;8.966;2022-08-03T02:55:22;6.03;;;5.53;;
23088;SDS011;11713;48.506;8.966;2022-08-03T02:57:50;7.07;;;5.63;;
23088;SDS011;11713;48.506;8.966;2022-08-03T03:00:18;6.00;;;5.43;;
23088;SDS011;11713;48.506;8.966;2022-08-03T03:02:44;6.15;;;5.40;;
23088;SDS011;11713;48.506;8.966;2022-08-03T03:05:11;5.72;;;5.18;;
23088;SDS011;11713;48.506;8.966;2022-08-03T03:07:38;6.47;;;5.88;;
23088;SDS011;11713;48.506;8.966;2022-08-03T03:10:05;6.90;;;6.27;;
23088;SDS011;11713;48.506;8.966;2022-08-03T03:12:32;7.10;;;5.77;;
23088;SDS011;11713;48.506;8.966;2022-08-03T03:15:01;5.60;;;5.10;;
23088;SDS011;11713;48.506;8.966;2022-08-03T03:17:28;5.87;;;5.27;;
23088;SDS011;11713;48.506;8.966;2022-08-03T03:19:56;5.70;;;5.10;;
23088;SDS011;11713;48.506;8.966;2022-08-03T03:22:24;5.53;;;5.03;;
23088;SDS011;11713;48.506;8.966;2022-08-03T03:24:51;6.07;;;5.57;;
23088;SDS011;11713;48.506;8.966;2022-08-03T03:27:19;5.90;;;5.40;;
23088;SDS011;11713;48.506;8.966;2022-08-03T03:29:46;6.30;;;5.60;;
23088;SDS011;11713;48.506;8.966;2022-08-03T03:32:12;5.90;;;5.40;;
23088;SDS011;11713;48.506;8.966;2022-08-03T03:34:39;7.10;;;5.80;;
23088;SDS011;11713;48.506;8.966;2022-08-03T03:37:06;5.93;;;5.33;;
23088;SDS011;11713;48.506;8.966;2022-08-03T03:39:32;7.27;;;5.60;;
23088;SDS011;11713;48.506;8.966;2022-08-03T03:42:00;6.73;;;6.10;;
23088;SDS011;11713;48.506;8.966;2022-08-03T03:44:27;6.57;;;5.97;;
23088;SDS011;11713;48.506;8.966;2022-08-03T03:46:54;6.43;;;5.93;;
23088;SDS011;11713;48.506;8.966;2022-08-03T03:49:24;5.77;;;5.27;;
23088;SDS011;11713;48.506;8.966;2022-08-03T03:51:53;6.80;;;6.10;;
23088;SDS011;11713;48.506;8.966;2022-08-03T03:54:21;7.13;;;5.70;;
23088;SDS011;11713;48.506;8.966;2022-08-03T03:56:47;6.37;;;5.77;;
23088;SDS011;11713;48.506;8.966;2022-08-03T03:59:13;6.90;;;5.80;;
23088;SDS011;11713;48.506;8.966;2022-08-03T04:01:40;6.10;;;5.60;;
23088;SDS011;11713;48.506;8.966;2022-08-03T04:04:06;7.10;;;6.50;;
23088;SDS011;11713;48.506;8.966;2022-08-03T04:06:50;7.37;;;6.53;;
23088;SDS011;11713;48.506;8.966;2022-08-03T04:09:35;7.17;;;6.47;;
23088;SDS011;11713;48.506;8.966;2022-08-03T04:12:23;8.57;;;6.73;;
23088;SDS011;11713;48.506;8.966;2022-08-03T04:14:50;7.23;;;6.17;;
23088;SDS011;11713;48.506;8.966;2022-08-03T04:17:19;6.57;;;5.70;;
23088;SDS011;11713;48.506;8.966;2022-08-03T04:19:51;6.77;;;5.67;;
23088;SDS011;11713;48.506;8.966;2022-08-03T04:22:20;6.07;;;5.57;;
23088;SDS011;11713;48.506;8.966;2022-08-03T04:24:50;7.57;;;6.67;;
23088;SDS011;11713;48.506;8.966;2022-08-03T04:27:20;6.40;;;5.80;;
23088;SDS011;11713;48.506;8.966;2022-08-03T04:29:49;6.57;;;5.97;;
23088;SDS011;11713;48.506;8.966;2022-08-03T04:32:17;6.23;;;5.73;;
23088;SDS011;11713;48.506;8.966;2022-08-03T04:34:45;6.73;;;6.13;;
23088;SDS011;11713;48.506;8.966;2022-08-03T04:37:13;6.23;;;5.63;;
23088;SDS011;11713;48.506;8.966;2022-08-03T04:39:44;7.50;;;6.30;;
23088;SDS011;11713;48.506;8.966;2022-08-03T04:42:13;6.90;;;6.07;;
23088;SDS011;11713;48.506;8.966;2022-08-03T04:44:40;6.70;;;6.00;;
23088;SDS011;11713;48.506;8.966;2022-08-03T04:47:21;6.47;;;5.90;;
23088;SDS011;11713;48.506;8.966;2022-08-03T04:49:59;8.27;;;6.37;;
23088;SDS011;11713;48.506;8.966;2022-08-03T04:52:34;8.23;;;6.20;;
23088;SDS011;11713;48.506;8.966;2022-08-03T04:55:09;7.13;;;6.07;;
23088;SDS011;11713;48.506;8.966;2022-08-03T04:57:36;6.57;;;5.97;;
23088;SDS011;11713;48.506;8.966;2022-08-03T05:00:03;6.83;;;5.97;;
23088;SDS011;11713;48.506;8.966;2022-08-03T05:02:33;7.27;;;6.43;;
23088;SDS011;11713;48.506;8.966;2022-08-03T05:04:59;6.90;;;6.30;;
23088;SDS011;11713;48.506;8.966;2022-08-03T05:07:25;7.20;;;6.50;;
23088;SDS011;11713;48.506;8.966;2022-08-03T05:09:53;7.73;;;6.93;;
23088;SDS011;11713;48.506;8.966;2022-08-03T05:12:19;6.90;;;6.40;;
23088;SDS011;11713;48.506;8.966;2022-08-03T05:14:45;7.67;;;6.97;;
23088;SDS011;11713;48.506;8.966;2022-08-03T05:17:11;6.77;;;6.17;;
23088;SDS011;11713;48.506;8.966;2022-08-03T05:19:37;7.40;;;6.70;;
23088;SDS011;11713;48.506;8.966;2022-08-03T05:22:03;7.77;;;6.97;;
23088;SDS011;11713;48.506;8.966;2022-08-03T05:24:28;8.20;;;7.40;;
23088;SDS011;11713;48.506;8.966;2022-08-03T05:26:54;7.25;;;6.63;;
23088;SDS011;11713;48.506;8.966;2022-08-03T05:29:20;7.50;;;6.78;;
23088;SDS011;11713;48.506;8.966;2022-08-03T05:31:46;6.85;;;6.03;;
23088;SDS011;11713;48.506;8.966;2022-08-03T05:34:12;7.45;;;6.78;;
23088;SDS011;11713;48.506;8.966;2022-08-03T05:36:38;7.10;;;6.40;;
23088;SDS011;11713;48.506;8.966;2022-08-03T05:39:04;6.70;;;5.93;;
23088;SDS011;11713;48.506;8.966;2022-08-03T05:41:30;7.18;;;6.47;;
23088;SDS011;11713;48.506;8.966;2022-08-03T05:43:56;6.43;;;5.93;;
23088;SDS011;11713;48.506;8.966;2022-08-03T05:46:22;6.72;;;6.13;;
23088;SDS011;11713;48.506;8.966;2022-08-03T05:48:55;6.60;;;5.90;;
23088;SDS011;11713;48.506;8.966;2022-08-03T05:51:21;8.10;;;6.10;;
23088;SDS011;11713;48.506;8.966;2022-08-03T05:53:47;6.15;;;5.45;;
23088;SDS011;11713;48.506;8.966;2022-08-03T05:56:13;6.70;;;6.03;;
23088;SDS011;11713;48.506;8.966;2022-08-03T05:58:39;6.53;;;5.80;;
23088;SDS011;11713;48.506;8.966;2022-08-03T06:01:06;6.80;;;6.03;;
23088;SDS011;11713;48.506;8.966;2022-08-03T06:03:32;6.68;;;6.07;;
23088;SDS011;11713;48.506;8.966;2022-08-03T06:05:58;7.03;;;6.38;;
23088;SDS011;11713;48.506;8.966;2022-08-03T06:08:24;7.78;;;6.63;;
23088;SDS011;11713;48.506;8.966;2022-08-03T06:10:50;6.88;;;6.28;;
23088;SDS011;11713;48.506;8.966;2022-08-03T06:13:16;7.15;;;6.45;;
23088;SDS011;11713;48.506;8.966;2022-08-03T06:15:42;7.88;;;6.95;;
23088;SDS011;11713;48.506;8.966;2022-08-03T06:18:08;7.40;;;6.35;;
23088;SDS011;11713;48.506;8.966;2022-08-03T06:20:34;6.80;;;6.20;;
23088;SDS011;11713;48.506;8.966;2022-08-03T06:23:00;7.20;;;6.03;;
23088;SDS011;11713;48.506;8.966;2022-08-03T06:25:26;6.63;;;5.93;;
23088;SDS011;11713;48.506;8.966;2022-08-03T06:27:52;7.10;;;6.50;;
23088;SDS011;11713;48.506;8.966;2022-08-03T06:30:21;7.03;;;6.43;;
23088;SDS011;11713;48.506;8.966;2022-08-03T06:32:47;7.28;;;6.50;;
23088;SDS011;11713;48.506;8.966;2022-08-03T06:35:14;6.80;;;5.95;;
23088;SDS011;11713;48.506;8.966;2022-08-03T06:37:47;9.93;;;6.53;;
23088;SDS011;11713;48.506;8.966;2022-08-03T06:40:15;7.93;;;6.10;;
23088;SDS011;11713;48.506;8.966;2022-08-03T06:42:43;6.57;;;5.97;;
23088;SDS011;11713;48.506;8.966;2022-08-03T06:45:09;6.60;;;6.00;;
23088;SDS011;11713;48.506;8.966;2022-08-03T06:47:36;5.97;;;5.38;;
23088;SDS011;11713;48.506;8.966;2022-08-03T06:50:03;6.38;;;5.78;;
23088;SDS011;11713;48.506;8.966;2022-08-03T06:52:31;6.90;;;6.18;;
23088;SDS011;11713;48.506;8.966;2022-08-03T06:54:57;6.95;;;6.25;;
23088;SDS011;11713;48.506;8.966;2022-08-03T06:57:23;6.47;;;5.82;;
23088;SDS011;11713;48.506;8.966;2022-08-03T06:59:51;6.55;;;5.80;;
23088;SDS011;11713;48.506;8.966;2022-08-03T07:02:20;6.35;;;5.75;;
23088;SDS011;11713;48.506;8.966;2022-08-03T07:04:47;7.38;;;6.55;;
23088;SDS011;11713;48.506;8.966;2022-08-03T07:07:14;5.70;;;5.20;;
23088;SDS011;11713;48.506;8.966;2022-08-03T07:09:42;5.82;;;5.32;;
23088;SDS011;11713;48.506;8.966;2022-08-03T07:12:14;5.70;;;4.80;;
23088;SDS011;11713;48.506;8.966;2022-08-03T07:14:45;7.05;;;5.55;;
23088;SDS011;11713;48.506;8.966;2022-08-03T07:17:14;6.63;;;5.93;;
23088;SDS011;11713;48.506;8.966;2022-08-03T07:19:40;6.13;;;5.63;;
23088;SDS011;11713;48.506;8.966;2022-08-03T07:22:06;7.82;;;5.53;;
23088;SDS011;11713;48.506;8.966;2022-08-03T07:24:33;6.22;;;5.60;;
23088;SDS011;11713;48.506;8.966;2022-08-03T07:26:59;6.63;;;5.50;;
23088;SDS011;11713;48.506;8.966;2022-08-03T07:29:28;5.82;;;5.32;;
23088;SDS011;11713;48.506;8.966;2022-08-03T07:31:56;6.55;;;5.28;;
23088;SDS011;11713;48.506;8.966;2022-08-03T07:34:22;6.50;;;5.10;;
23088;SDS011;11713;48.506;8.966;2022-08-03T07:36:48;4.95;;;4.47;;
23088;SDS011;11713;48.506;8.966;2022-08-03T07:39:16;5.45;;;5.05;;
23088;SDS011;11713;48.506;8.966;2022-08-03T07:41:42;5.15;;;4.60;;
23088;SDS011;11713;48.506;8.966;2022-08-03T07:44:08;6.03;;;4.45;;
23088;SDS011;11713;48.506;8.966;2022-08-03T07:46:34;4.55;;;3.92;;
23088;SDS011;11713;48.506;8.966;2022-08-03T07:49:03;5.10;;;4.60;;
23088;SDS011;11713;48.506;8.966;2022-08-03T07:51:30;5.00;;;4.60;;
23088;SDS011;11713;48.506;8.966;2022-08-03T07:53:56;4.85;;;4.45;;
23088;SDS011;11713;48.506;8.966;2022-08-03T07:56:22;4.57;;;4.18;;
23088;SDS011;11713;48.506;8.966;2022-08-03T07:58:52;5.30;;;4.80;;
23088;SDS011;11713;48.506;8.966;2022-08-03T08:01:18;5.85;;;4.50;;
23088;SDS011;11713;48.506;8.966;2022-08-03T08:03:45;4.80;;;4.30;;
23088;SDS011;11713;48.506;8.966;2022-08-03T08:06:11;4.65;;;4.13;;
23088;SDS011;11713;48.506;8.966;2022-08-03T08:08:37;5.03;;;4.20;;
23088;SDS011;11713;48.506;8.966;2022-08-03T08:11:04;4.72;;;4.32;;
23088;SDS011;11713;48.506;8.966;2022-08-03T08:13:30;4.22;;;3.83;;
23088;SDS011;11713;48.506;8.966;2022-08-03T08:15:56;4.03;;;3.38;;
23088;SDS011;11713;48.506;8.966;2022-08-03T08:18:22;3.65;;;3.35;;
23088;SDS011;11713;48.506;8.966;2022-08-03T08:20:49;4.65;;;4.07;;
23088;SDS011;11713;48.506;8.966;2022-08-03T08:23:16;4.28;;;3.88;;
23088;SDS011;11713;48.506;8.966;2022-08-03T08:25:51;4.07;;;3.50;;
23088;SDS011;11713;48.506;8.966;2022-08-03T08:28:18;3.42;;;3.10;;
23088;SDS011;11713;48.506;8.966;2022-08-03T08:30:46;2.90;;;2.70;;
23088;SDS011;11713;48.506;8.966;2022-08-03T08:33:12;3.70;;;3.00;;
23088;SDS011;11713;48.506;8.966;2022-08-03T08:35:38;6.25;;;2.78;;
23088;SDS011;11713;48.506;8.966;2022-08-03T08:38:15;2.55;;;2.35;;
23088;SDS011;11713;48.506;8.966;2022-08-03T08:40:49;3.78;;;2.30;;
23088;SDS011;11713;48.506;8.966;2022-08-03T08:43:17;4.03;;;2.47;;
23088;SDS011;11713;48.506;8.966;2022-08-03T08:48:47;2.40;;;2.20;;
23088;SDS011;11713;48.506;8.966;2022-08-03T08:51:13;2.80;;;2.33;;
23088;SDS011;11713;48.506;8.966;2022-08-03T08:53:44;2.42;;;2.22;;
23088;SDS011;11713;48.506;8.966;2022-08-03T08:56:24;3.67;;;2.08;;
23088;SDS011;11713;48.506;8.966;2022-08-03T08:58:52;2.72;;;2.22;;
23088;SDS011;11713;48.506;8.966;2022-08-03T09:01:22;2.35;;;1.98;;
23088;SDS011;11713;48.506;8.966;2022-08-03T09:06:35;2.83;;;2.20;;
23088;SDS011;11713;48.506;8.966;2022-08-03T09:09:06;2.72;;;2.20;;
23088;SDS011;11713;48.506;8.966;2022-08-03T09:11:43;2.92;;;2.28;;
23088;SDS011;11713;48.506;8.966;2022-08-03T09:14:11;4.00;;;2.10;;
23088;SDS011;11713;48.506;8.966;2022-08-03T09:17:01;3.35;;;2.20;;
23088;SDS011;11713;48.506;8.966;2022-08-03T09:19:33;2.40;;;2.17;;
23088;SDS011;11713;48.506;8.966;2022-08-03T09:22:07;2.20;;;2.10;;
23088;SDS011;11713;48.506;8.966;2022-08-03T09:25:00;2.15;;;1.90;;
23088;SDS011;11713;48.506;8.966;2022-08-03T09:27:48;2.25;;;2.05;;
23088;SDS011;11713;48.506;8.966;2022-08-03T09:30:15;1.92;;;1.83;;
23088;SDS011;11713;48.506;8.966;2022-08-03T09:32:42;2.20;;;2.00;;
23088;SDS011;11713;48.506;8.966;2022-08-03T09:35:13;2.55;;;2.38;;
23088;SDS011;11713;48.506;8.966;2022-08-03T09:38:13;4.20;;;2.20;;
23088;SDS011;11713;48.506;8.966;2022-08-03T09:40:53;2.38;;;2.17;;
23088;SDS011;11713;48.506;8.966;2022-08-03T09:43:24;3.72;;;2.00;;
23088;SDS011;11713;48.506;8.966;2022-08-03T09:46:01;3.90;;;1.80;;
23088;SDS011;11713;48.506;8.966;2022-08-03T09:48:29;2.22;;;2.00;;
23088;SDS011;11713;48.506;8.966;2022-08-03T09:51:03;2.20;;;2.00;;
23088;SDS011;11713;48.506;8.966;2022-08-03T09:53:31;2.00;;;1.90;;
23088;SDS011;11713;48.506;8.966;2022-08-03T09:59:23;1.90;;;1.77;;
23088;SDS011;11713;48.506;8.966;2022-08-03T10:01:56;2.22;;;1.80;;
23088;SDS011;11713;48.506;8.966;2022-08-03T10:04:24;2.03;;;1.80;;
23088;SDS011;11713;48.506;8.966;2022-08-03T10:07:07;2.85;;;1.42;;
23088;SDS011;11713;48.506;8.966;2022-08-03T10:09:36;2.67;;;1.80;;
23088;SDS011;11713;48.506;8.966;2022-08-03T10:14:53;3.15;;;1.95;;
23088;SDS011;11713;48.506;8.966;2022-08-03T10:17:25;2.72;;;2.00;;
23088;SDS011;11713;48.506;8.966;2022-08-03T10:25:38;2.55;;;1.98;;
23088;SDS011;11713;48.506;8.966;2022-08-03T10:28:05;1.88;;;1.77;;
23088;SDS011;11713;48.506;8.966;2022-08-03T10:30:33;1.60;;;1.50;;
23088;SDS011;11713;48.506;8.966;2022-08-03T10:33:09;1.80;;;1.70;;
23088;SDS011;11713;48.506;8.966;2022-08-03T10:35:41;3.47;;;2.00;;
23088;SDS011;11713;48.506;8.966;2022-08-03T10:38:09;3.53;;;1.98;;
23088;SDS011;11713;48.506;8.966;2022-08-03T10:40:40;3.13;;;1.83;;
23088;SDS011;11713;48.506;8.966;2022-08-03T10:43:09;1.98;;;1.70;;
23088;SDS011;11713;48.506;8.966;2022-08-03T10:45:42;2.83;;;1.90;;
23088;SDS011;11713;48.506;8.966;2022-08-03T10:48:11;2.38;;;2.15;;
23088;SDS011;11713;48.506;8.966;2022-08-03T10:50:42;2.20;;;2.00;;
23088;SDS011;11713;48.506;8.966;2022-08-03T10:53:08;2.25;;;2.00;;
23088;SDS011;11713;48.506;8.966;2022-08-03T10:55:36;1.95;;;1.85;;
23088;SDS011;11713;48.506;8.966;2022-08-03T11:01:09;2.38;;;1.80;;
23088;SDS011;11713;48.506;8.966;2022-08-03T11:06:31;2.10;;;1.70;;
23088;SDS011;11713;48.506;8.966;2022-08-03T11:11:35;1.90;;;1.80;;
23088;SDS011;11713;48.506;8.966;2022-08-03T11:14:06;3.20;;;1.90;;
23088;SDS011;11713;48.506;8.966;2022-08-03T11:16:35;2.03;;;1.80;;
23088;SDS011;11713;48.506;8.966;2022-08-03T11:19:04;1.70;;;1.60;;
23088;SDS011;11713;48.506;8.966;2022-08-03T11:27:18;2.08;;;1.92;;
23088;SDS011;11713;48.506;8.966;2022-08-03T11:29:53;1.83;;;1.73;;
23088;SDS011;11713;48.506;8.966;2022-08-03T11:35:06;2.45;;;1.75;;
23088;SDS011;11713;48.506;8.966;2022-08-03T11:43:45;2.00;;;1.70;;
23088;SDS011;11713;48.506;8.966;2022-08-03T11:46:12;2.55;;;1.88;;
23088;SDS011;11713;48.506;8.966;2022-08-03T11:49:02;1.75;;;1.65;;
23088;SDS011;11713;48.506;8.966;2022-08-03T11:51:32;1.75;;;1.65;;
23088;SDS011;11713;48.506;8.966;2022-08-03T11:54:09;1.90;;;1.80;;
23088;SDS011;11713;48.506;8.966;2022-08-03T11:56:43;1.90;;;1.80;;
23088;SDS011;11713;48.506;8.966;2022-08-03T11:59:11;2.58;;;1.83;;
23088;SDS011;11713;48.506;8.966;2022-08-03T12:01:36;1.65;;;1.55;;
23088;SDS011;11713;48.506;8.966;2022-08-03T12:04:04;2.00;;;1.90;;
23088;SDS011;11713;48.506;8.966;2022-08-03T12:06:33;1.77;;;1.67;;
23088;SDS011;11713;48.506;8.966;2022-08-03T12:09:20;2.95;;;1.50;;
23088;SDS011;11713;48.506;8.966;2022-08-03T12:14:39;2.38;;;1.70;;
23088;SDS011;11713;48.506;8.966;2022-08-03T12:17:11;1.90;;;1.80;;
23088;SDS011;11713;48.506;8.966;2022-08-03T12:19:41;1.75;;;1.63;;
23088;SDS011;11713;48.506;8.966;2022-08-03T12:22:07;1.90;;;1.80;;
23088;SDS011;11713;48.506;8.966;2022-08-03T12:24:40;2.03;;;1.90;;
23088;SDS011;11713;48.506;8.966;2022-08-03T12:27:09;2.00;;;1.90;;
23088;SDS011;11713;48.506;8.966;2022-08-03T12:29:36;1.90;;;1.80;;
23088;SDS011;11713;48.506;8.966;2022-08-03T12:32:02;2.28;;;1.80;;
23088;SDS011;11713;48.506;8.966;2022-08-03T12:34:44;3.45;;;1.73;;
23088;SDS011;11713;48.506;8.966;2022-08-03T12:37:21;2.85;;;2.00;;
23088;SDS011;11713;48.506;8.966;2022-08-03T12:39:51;1.88;;;1.70;;
23088;SDS011;11713;48.506;8.966;2022-08-03T12:42:18;1.80;;;1.70;;
23088;SDS011;11713;48.506;8.966;2022-08-03T12:44:45;1.95;;;1.85;;
23088;SDS011;11713;48.506;8.966;2022-08-03T12:47:13;2.00;;;1.90;;
23088;SDS011;11713;48.506;8.966;2022-08-03T12:49:50;2.45;;;1.85;;
23088;SDS011;11713;48.506;8.966;2022-08-03T12:52:27;1.92;;;1.83;;
23088;SDS011;11713;48.506;8.966;2022-08-03T12:58:05;2.17;;;1.85;;
23088;SDS011;11713;48.506;8.966;2022-08-03T13:00:35;2.30;;;1.83;;
23088;SDS011;11713;48.506;8.966;2022-08-03T13:03:05;2.55;;;1.80;;
23088;SDS011;11713;48.506;8.966;2022-08-03T13:05:42;2.60;;;1.80;;
23088;SDS011;11713;48.506;8.966;2022-08-03T13:08:21;2.53;;;1.65;;
23088;SDS011;11713;48.506;8.966;2022-08-03T13:10:50;2.08;;;1.67;;
23088;SDS011;11713;48.506;8.966;2022-08-03T13:13:17;1.98;;;1.85;;
23088;SDS011;11713;48.506;8.966;2022-08-03T13:16:22;3.15;;;2.05;;
23088;SDS011;11713;48.506;8.966;2022-08-03T13:18:54;1.77;;;1.67;;
23088;SDS011;11713;48.506;8.966;2022-08-03T13:21:20;2.05;;;1.95;;
23088;SDS011;11713;48.506;8.966;2022-08-03T13:23:46;2.15;;;1.92;;
23088;SDS011;11713;48.506;8.966;2022-08-03T13:29:39;2.00;;;1.90;;
23088;SDS011;11713;48.506;8.966;2022-08-03T13:32:13;2.22;;;2.03;;
23088;SDS011;11713;48.506;8.966;2022-08-03T13:34:40;1.92;;;1.83;;
23088;SDS011;11713;48.506;8.966;2022-08-03T13:40:03;1.60;;;1.50;;
23088;SDS011;11713;48.506;8.966;2022-08-03T13:42:31;1.85;;;1.73;;
23088;SDS011;11713;48.506;8.966;2022-08-03T13:44:58;2.10;;;1.92;;
23088;SDS011;11713;48.506;8.966;2022-08-03T13:47:25;1.75;;;1.65;;
23088;SDS011;11713;48.506;8.966;2022-08-03T13:49:53;1.90;;;1.70;;
23088;SDS011;11713;48.506;8.966;2022-08-03T13:52:19;2.28;;;2.08;;
23088;SDS011;11713;48.506;8.966;2022-08-03T13:54:46;2.63;;;1.88;;
23088;SDS011;11713;48.506;8.966;2022-08-03T13:57:12;1.73;;;1.63;;
23088;SDS011;11713;48.506;8.966;2022-08-03T13:59:41;2.03;;;1.80;;
23088;SDS011;11713;48.506;8.966;2022-08-03T14:02:08;2.00;;;1.77;;
23088;SDS011;11713;48.506;8.966;2022-08-03T14:04:36;2.42;;;1.92;;
23088;SDS011;11713;48.506;8.966;2022-08-03T14:07:03;1.90;;;1.80;;
23088;SDS011;11713;48.506;8.966;2022-08-03T14:09:32;3.85;;;1.92;;
23088;SDS011;11713;48.506;8.966;2022-08-03T14:11:59;1.90;;;1.80;;
23088;SDS011;11713;48.506;8.966;2022-08-03T14:14:25;1.70;;;1.60;;
23088;SDS011;11713;48.506;8.966;2022-08-03T14:16:50;2.15;;;2.03;;
23088;SDS011;11713;48.506;8.966;2022-08-03T14:19:16;1.83;;;1.73;;
23088;SDS011;11713;48.506;8.966;2022-08-03T14:24:31;1.77;;;1.67;;
23088;SDS011;11713;48.506;8.966;2022-08-03T14:26:58;2.05;;;1.80;;
23088;SDS011;11713;48.506;8.966;2022-08-03T14:29:25;1.90;;;1.63;;
23088;SDS011;11713;48.506;8.966;2022-08-03T14:31:52;1.75;;;1.63;;
23088;SDS011;11713;48.506;8.966;2022-08-03T14:34:18;2.17;;;1.98;;
23088;SDS011;11713;48.506;8.966;2022-08-03T14:36:45;4.40;;;1.77;;
23088;SDS011;11713;48.506;8.966;2022-08-03T14:39:12;1.83;;;1.73;;
23088;SDS011;11713;48.506;8.966;2022-08-03T14:41:38;1.88;;;1.70;;
23088;SDS011;11713;48.506;8.966;2022-08-03T14:44:04;1.92;;;1.83;;
23088;SDS011;11713;48.506;8.966;2022-08-03T14:46:30;4.50;;;1.80;;
23088;SDS011;11713;48.506;8.966;2022-08-03T14:48:56;2.35;;;1.83;;
23088;SDS011;11713;48.506;8.966;2022-08-03T14:51:23;1.80;;;1.70;;
23088;SDS011;11713;48.506;8.966;2022-08-03T14:53:49;1.85;;;1.75;;
23088;SDS011;11713;48.506;8.966;2022-08-03T14:56:15;1.92;;;1.83;;
23088;SDS011;11713;48.506;8.966;2022-08-03T14:58:41;1.77;;;1.60;;
23088;SDS011;11713;48.506;8.966;2022-08-03T15:01:07;3.58;;;1.70;;
23088;SDS011;11713;48.506;8.966;2022-08-03T15:03:34;1.77;;;1.67;;
23088;SDS011;11713;48.506;8.966;2022-08-03T15:06:00;2.13;;;1.90;;
23088;SDS011;11713;48.506;8.966;2022-08-03T15:08:26;3.47;;;1.90;;
23088;SDS011;11713;48.506;8.966;2022-08-03T15:10:52;1.80;;;1.70;;
23088;SDS011;11713;48.506;8.966;2022-08-03T15:13:19;2.13;;;1.92;;
23088;SDS011;11713;48.506;8.966;2022-08-03T15:15:45;2.00;;;1.90;;
23088;SDS011;11713;48.506;8.966;2022-08-03T15:18:12;2.30;;;1.90;;
23088;SDS011;11713;48.506;8.966;2022-08-03T15:20:37;1.85;;;1.75;;
23088;SDS011;11713;48.506;8.966;2022-08-03T15:23:03;1.83;;;1.60;;
23088;SDS011;11713;48.506;8.966;2022-08-03T15:25:29;1.92;;;1.70;;
23088;SDS011;11713;48.506;8.966;2022-08-03T15:27:55;1.75;;;1.65;;
23088;SDS011;11713;48.506;8.966;2022-08-03T15:30:21;2.55;;;2.00;;
23088;SDS011;11713;48.506;8.966;2022-08-03T15:32:47;1.70;;;1.60;;
23088;SDS011;11713;48.506;8.966;2022-08-03T15:35:12;2.72;;;1.98;;
23088;SDS011;11713;48.506;8.966;2022-08-03T15:37:39;1.90;;;1.80;;
23088;SDS011;11713;48.506;8.966;2022-08-03T15:40:05;2.00;;;1.65;;
23088;SDS011;11713;48.506;8.966;2022-08-03T15:42:32;2.25;;;1.90;;
23088;SDS011;11713;48.506;8.966;2022-08-03T15:44:58;2.58;;;1.73;;
23088;SDS011;11713;48.506;8.966;2022-08-03T15:47:24;2.25;;;2.05;;
23088;SDS011;11713;48.506;8.966;2022-08-03T15:49:51;1.90;;;1.80;;
23088;SDS011;11713;48.506;8.966;2022-08-03T15:52:18;1.95;;;1.83;;
23088;SDS011;11713;48.506;8.966;2022-08-03T15:54:47;2.33;;;1.90;;
23088;SDS011;11713;48.506;8.966;2022-08-03T15:57:16;2.08;;;1.98;;
23088;SDS011;11713;48.506;8.966;2022-08-03T15:59:45;2.13;;;1.90;;
23088;SDS011;11713;48.506;8.966;2022-08-03T16:02:22;1.98;;;1.88;;
23088;SDS011;11713;48.506;8.966;2022-08-03T16:04:50;3.08;;;1.95;;